createdAt,value
2023-05-06T07:36:00.613Z,1012.22
2023-05-06T07:37:00.528Z,1012.21
2023-05-06T07:38:00.531Z,1012.19
2023-05-06T07:39:00.530Z,1012.23
2023-05-06T07:40:00.544Z,1012.27
2023-05-06T07:41:00.541Z,1012.27
2023-05-06T07:42:00.555Z,1012.29
2023-05-06T07:43:00.557Z,1012.30
2023-05-06T07:44:00.570Z,1012.31
2023-05-06T07:45:00.633Z,1012.34
2023-05-06T07:46:00.589Z,1012.33
2023-05-06T07:47:00.719Z,1012.31
2023-05-06T07:48:00.628Z,1012.32
2023-05-06T07:49:00.615Z,1012.34
2023-05-06T07:50:00.599Z,1012.33
2023-05-06T07:51:00.622Z,1012.33
2023-05-06T07:52:00.644Z,1012.39
2023-05-06T07:54:00.638Z,1012.42
2023-05-06T07:55:00.641Z,1012.41
2023-05-06T07:56:00.662Z,1012.42
2023-05-06T07:57:00.661Z,1012.41
2023-05-06T07:58:00.669Z,1012.42
2023-05-06T07:59:00.675Z,1012.42
2023-05-06T08:00:00.678Z,1012.38
2023-05-06T08:01:00.692Z,1012.41
2023-05-06T08:02:00.693Z,1012.43
2023-05-06T08:03:00.773Z,1012.45
2023-05-06T08:04:00.830Z,1012.45
2023-05-06T08:05:00.742Z,1012.47
2023-05-06T08:06:00.740Z,1012.45
2023-05-06T08:07:00.739Z,1012.49
2023-05-06T08:08:00.778Z,1012.46
2023-05-06T08:09:00.759Z,1012.49
2023-05-06T08:10:00.765Z,1012.51
2023-05-06T08:11:01.789Z,1012.49
2023-05-06T08:12:00.788Z,1012.55
2023-05-06T08:13:00.832Z,1012.52
2023-05-06T08:14:00.801Z,1012.52
2023-05-06T08:15:00.811Z,1012.49
2023-05-06T08:16:00.821Z,1012.53
2023-05-06T09:23:51.817Z,1012.56
2023-05-06T09:24:51.732Z,1012.63
2023-05-06T09:25:51.760Z,1012.61
2023-05-06T09:26:51.756Z,1012.63
2023-05-06T19:27:47.997Z,1015.16
2023-05-06T19:28:47.902Z,1015.18
2023-05-06T19:29:47.911Z,1015.18
2023-05-06T19:30:47.935Z,1015.18
2023-05-06T19:31:47.923Z,1015.16
2023-05-06T19:32:47.958Z,1015.17
2023-05-06T19:33:47.940Z,1015.20
2023-05-06T19:34:47.944Z,1015.21
2023-05-06T19:35:47.946Z,1015.27
2023-05-06T19:36:47.957Z,1015.20
2023-05-06T19:37:47.951Z,1015.28
2023-05-06T19:38:47.964Z,1015.24
2023-05-06T19:39:47.969Z,1015.32
2023-05-06T19:40:48.088Z,1015.31
2023-05-06T19:41:48.187Z,1015.31
2023-05-06T19:42:47.988Z,1015.31
2023-05-06T19:43:48.105Z,1015.29
2023-05-06T19:44:48.000Z,1015.32
2023-05-06T19:45:48.043Z,1015.30
2023-05-06T19:46:48.042Z,1015.30
2023-05-06T19:47:48.063Z,1015.30
2023-05-06T19:48:48.025Z,1015.28
2023-05-06T19:49:48.033Z,1015.28
2023-05-06T19:50:48.042Z,1015.38
2023-05-06T19:51:48.045Z,1015.33
2023-05-06T19:52:48.052Z,1015.38
2023-05-06T19:53:48.059Z,1015.38
2023-05-06T19:54:48.075Z,1015.35
2023-05-06T19:55:48.101Z,1015.34
2023-05-06T19:56:48.105Z,1015.35
2023-05-06T19:57:48.087Z,1015.47
2023-05-06T19:58:48.102Z,1015.40
2023-05-06T19:59:48.195Z,1015.38
2023-05-06T20:00:48.112Z,1015.36
2023-05-06T20:01:48.159Z,1015.41
2023-05-06T20:02:48.155Z,1015.40
2023-05-06T20:03:48.216Z,1015.42
2023-05-06T20:04:48.148Z,1015.42
2023-05-06T20:05:48.153Z,1015.44
2023-05-06T20:06:48.146Z,1015.45
2023-05-06T20:07:48.160Z,1015.43
2023-05-06T20:08:48.178Z,1015.47
2023-05-06T20:09:49.188Z,1015.49
2023-05-06T20:10:48.185Z,1015.45
2023-05-06T20:11:48.181Z,1015.46
2023-05-06T20:12:48.259Z,1015.49
2023-05-06T20:13:48.200Z,1015.46
2023-05-06T20:14:48.202Z,1015.47
2023-05-06T20:15:48.340Z,1015.51
2023-05-06T20:16:48.260Z,1015.48
2023-05-06T20:17:48.277Z,1015.48
2023-05-06T20:18:48.246Z,1015.46
2023-05-06T20:19:48.254Z,1015.46
2023-05-06T20:20:48.256Z,1015.43
2023-05-06T20:21:48.253Z,1015.42
2023-05-06T20:22:48.266Z,1015.47
2023-05-06T20:23:48.264Z,1015.46
2023-05-06T20:24:48.281Z,1015.44
2023-05-06T20:25:48.285Z,1015.44
2023-05-06T20:26:48.296Z,1015.47
2023-05-06T20:27:48.298Z,1015.44
2023-05-06T20:28:48.304Z,1015.49
2023-05-06T20:29:48.318Z,1015.51
2023-05-06T20:30:48.328Z,1015.45
2023-05-06T20:31:48.461Z,1015.47
2023-05-06T20:32:50.720Z,1015.54
2023-05-06T20:33:48.347Z,1015.54
2023-05-06T20:34:48.361Z,1015.56
2023-05-06T20:35:48.347Z,1015.53
2023-05-06T20:36:48.357Z,1015.56
2023-05-06T20:37:48.366Z,1015.58
2023-05-06T20:38:48.376Z,1015.56
2023-05-06T20:39:48.384Z,1015.61
2023-05-06T20:40:48.389Z,1015.62
2023-05-06T20:41:48.401Z,1015.63
2023-05-06T20:42:48.413Z,1015.60
2023-05-06T20:43:48.411Z,1015.61
2023-05-06T20:44:48.412Z,1015.60
2023-05-06T20:45:48.450Z,1015.60
2023-05-06T20:46:48.426Z,1015.58
2023-05-06T20:47:48.622Z,1015.58
2023-05-06T20:48:48.445Z,1015.60
2023-05-06T20:49:48.442Z,1015.54
2023-05-06T20:50:48.456Z,1015.61
2023-05-06T20:51:48.462Z,1015.61
2023-05-06T20:52:48.478Z,1015.63
2023-05-06T20:53:48.472Z,1015.62
2023-05-06T20:54:48.497Z,1015.67
2023-05-06T20:55:48.540Z,1015.68
2023-05-06T20:56:48.486Z,1015.72
2023-05-06T20:57:48.502Z,1015.74
2023-05-06T20:58:48.503Z,1015.70
2023-05-06T20:59:48.509Z,1015.73
2023-05-06T21:00:48.557Z,1015.69
2023-05-06T21:01:48.531Z,1015.64
2023-05-06T21:02:48.664Z,1015.68
2023-05-06T21:03:48.744Z,1015.70
2023-05-06T21:04:48.542Z,1015.70
2023-05-06T21:05:48.555Z,1015.72
2023-05-06T21:06:48.562Z,1015.72
2023-05-06T21:07:48.568Z,1015.69
2023-05-06T21:08:48.568Z,1015.67
2023-05-06T21:09:48.594Z,1015.70
2023-05-06T21:10:48.590Z,1015.72
2023-05-06T21:11:48.592Z,1015.71
2023-05-06T21:12:48.636Z,1015.74
2023-05-06T21:13:50.200Z,1015.77
2023-05-06T21:14:48.612Z,1015.73
2023-05-06T21:15:48.623Z,1015.74
2023-05-06T21:16:48.627Z,1015.78
2023-05-06T21:17:48.682Z,1015.76
2023-05-06T21:18:48.678Z,1015.79
2023-05-06T21:19:48.756Z,1015.81
2023-05-06T21:20:48.657Z,1015.75
